sensor_id;sensor_type;location;lat;lon;timestamp;temperature;humidity
51811;DHT22;52468;40.116;18.296;2023-07-13T00:00:00;26.40;63.80
51811;DHT22;52468;40.116;18.296;2023-07-13T00:02:31;26.40;64.00
51811;DHT22;52468;40.116;18.296;2023-07-13T00:05:00;26.40;64.10
51811;DHT22;52468;40.116;18.296;2023-07-13T00:07:28;26.40;64.30
51811;DHT22;52468;40.116;18.296;2023-07-13T00:09:56;26.40;64.40
51811;DHT22;52468;40.116;18.296;2023-07-13T00:12:34;26.30;64.60
51811;DHT22;52468;40.116;18.296;2023-07-13T00:15:11;26.20;64.90
51811;DHT22;52468;40.116;18.296;2023-07-13T00:17:40;26.20;64.90
51811;DHT22;52468;40.116;18.296;2023-07-13T00:20:09;26.20;65.30
51811;DHT22;52468;40.116;18.296;2023-07-13T00:22:37;26.20;65.30
51811;DHT22;52468;40.116;18.296;2023-07-13T00:25:05;26.20;65.50
51811;DHT22;52468;40.116;18.296;2023-07-13T00:27:33;26.20;65.60
51811;DHT22;52468;40.116;18.296;2023-07-13T00:30:01;26.20;65.80
51811;DHT22;52468;40.116;18.296;2023-07-13T00:32:33;26.20;66.10
51811;DHT22;52468;40.116;18.296;2023-07-13T00:35:02;26.20;66.10
51811;DHT22;52468;40.116;18.296;2023-07-13T00:37:32;26.10;66.20
51811;DHT22;52468;40.116;18.296;2023-07-13T00:40:05;26.10;66.40
51811;DHT22;52468;40.116;18.296;2023-07-13T00:42:33;26.00;66.50
51811;DHT22;52468;40.116;18.296;2023-07-13T00:47:43;26.00;66.80
51811;DHT22;52468;40.116;18.296;2023-07-13T00:50:13;26.00;67.00
51811;DHT22;52468;40.116;18.296;2023-07-13T00:52:45;26.00;67.10
51811;DHT22;52468;40.116;18.296;2023-07-13T00:55:14;26.00;67.10
51811;DHT22;52468;40.116;18.296;2023-07-13T00:57:44;26.00;67.20
51811;DHT22;52468;40.116;18.296;2023-07-13T01:00:12;26.00;67.20
51811;DHT22;52468;40.116;18.296;2023-07-13T01:02:42;26.00;67.30
51811;DHT22;52468;40.116;18.296;2023-07-13T01:05:13;26.00;67.20
51811;DHT22;52468;40.116;18.296;2023-07-13T01:07:44;26.00;67.20
51811;DHT22;52468;40.116;18.296;2023-07-13T01:10:13;26.00;67.20
51811;DHT22;52468;40.116;18.296;2023-07-13T01:12:40;26.00;67.30
51811;DHT22;52468;40.116;18.296;2023-07-13T01:15:38;26.00;67.40
51811;DHT22;52468;40.116;18.296;2023-07-13T01:18:10;25.90;67.50
51811;DHT22;52468;40.116;18.296;2023-07-13T01:20:39;25.90;67.70
51811;DHT22;52468;40.116;18.296;2023-07-13T01:23:09;25.90;67.80
51811;DHT22;52468;40.116;18.296;2023-07-13T01:25:37;25.90;68.00
51811;DHT22;52468;40.116;18.296;2023-07-13T01:28:07;25.80;68.20
51811;DHT22;52468;40.116;18.296;2023-07-13T01:30:39;25.80;68.50
51811;DHT22;52468;40.116;18.296;2023-07-13T01:33:08;25.70;68.70
51811;DHT22;52468;40.116;18.296;2023-07-13T01:35:37;25.80;68.80
51811;DHT22;52468;40.116;18.296;2023-07-13T01:38:05;25.70;68.90
51811;DHT22;52468;40.116;18.296;2023-07-13T01:40:34;25.70;69.10
51811;DHT22;52468;40.116;18.296;2023-07-13T01:43:03;25.70;69.10
51811;DHT22;52468;40.116;18.296;2023-07-13T01:45:31;25.70;69.20
51811;DHT22;52468;40.116;18.296;2023-07-13T01:47:59;25.70;69.20
51811;DHT22;52468;40.116;18.296;2023-07-13T01:50:27;25.70;69.20
51811;DHT22;52468;40.116;18.296;2023-07-13T01:52:55;25.60;69.20
51811;DHT22;52468;40.116;18.296;2023-07-13T01:55:23;25.60;69.20
51811;DHT22;52468;40.116;18.296;2023-07-13T01:57:51;25.60;69.30
51811;DHT22;52468;40.116;18.296;2023-07-13T02:00:20;25.60;69.20
51811;DHT22;52468;40.116;18.296;2023-07-13T02:02:48;25.50;69.20
51811;DHT22;52468;40.116;18.296;2023-07-13T02:05:17;25.50;69.30
51811;DHT22;52468;40.116;18.296;2023-07-13T02:07:45;25.50;69.40
51811;DHT22;52468;40.116;18.296;2023-07-13T02:10:13;25.50;69.30
51811;DHT22;52468;40.116;18.296;2023-07-13T02:12:42;25.50;69.30
51811;DHT22;52468;40.116;18.296;2023-07-13T02:15:10;25.50;69.30
51811;DHT22;52468;40.116;18.296;2023-07-13T02:17:38;25.40;69.40
51811;DHT22;52468;40.116;18.296;2023-07-13T02:20:06;25.40;69.40
51811;DHT22;52468;40.116;18.296;2023-07-13T02:22:35;25.30;69.40
51811;DHT22;52468;40.116;18.296;2023-07-13T02:25:03;25.30;69.50
51811;DHT22;52468;40.116;18.296;2023-07-13T02:27:31;25.30;69.60
51811;DHT22;52468;40.116;18.296;2023-07-13T02:29:59;25.30;69.80
51811;DHT22;52468;40.116;18.296;2023-07-13T02:32:27;25.30;69.90
51811;DHT22;52468;40.116;18.296;2023-07-13T02:34:55;25.30;69.90
51811;DHT22;52468;40.116;18.296;2023-07-13T02:37:23;25.30;70.10
51811;DHT22;52468;40.116;18.296;2023-07-13T02:39:51;25.30;70.00
51811;DHT22;52468;40.116;18.296;2023-07-13T02:42:19;25.30;69.90
51811;DHT22;52468;40.116;18.296;2023-07-13T02:44:47;25.30;69.80
51811;DHT22;52468;40.116;18.296;2023-07-13T02:47:15;25.30;69.80
51811;DHT22;52468;40.116;18.296;2023-07-13T02:49:43;25.30;69.80
51811;DHT22;52468;40.116;18.296;2023-07-13T02:52:11;25.20;69.90
51811;DHT22;52468;40.116;18.296;2023-07-13T02:54:39;25.20;70.00
51811;DHT22;52468;40.116;18.296;2023-07-13T02:57:07;25.20;70.20
51811;DHT22;52468;40.116;18.296;2023-07-13T02:59:35;25.10;70.10
51811;DHT22;52468;40.116;18.296;2023-07-13T03:02:04;25.20;70.10
51811;DHT22;52468;40.116;18.296;2023-07-13T03:04:32;25.10;70.00
51811;DHT22;52468;40.116;18.296;2023-07-13T03:07:00;25.10;70.00
51811;DHT22;52468;40.116;18.296;2023-07-13T03:09:36;25.10;70.00
51811;DHT22;52468;40.116;18.296;2023-07-13T03:12:07;25.10;70.00
51811;DHT22;52468;40.116;18.296;2023-07-13T03:14:36;25.00;70.00
51811;DHT22;52468;40.116;18.296;2023-07-13T03:17:06;25.00;70.00
51811;DHT22;52468;40.116;18.296;2023-07-13T03:19:38;25.00;69.90
51811;DHT22;52468;40.116;18.296;2023-07-13T03:22:06;25.00;69.80
51811;DHT22;52468;40.116;18.296;2023-07-13T03:24:35;25.00;69.90
51811;DHT22;52468;40.116;18.296;2023-07-13T03:27:07;25.00;69.80
51811;DHT22;52468;40.116;18.296;2023-07-13T03:29:38;24.90;69.80
51811;DHT22;52468;40.116;18.296;2023-07-13T03:32:07;24.90;69.80
51811;DHT22;52468;40.116;18.296;2023-07-13T03:34:35;24.90;69.60
51811;DHT22;52468;40.116;18.296;2023-07-13T03:37:03;25.00;69.50
51811;DHT22;52468;40.116;18.296;2023-07-13T03:39:31;24.90;69.50
51811;DHT22;52468;40.116;18.296;2023-07-13T03:42:00;24.90;69.60
51811;DHT22;52468;40.116;18.296;2023-07-13T03:44:28;25.00;69.60
51811;DHT22;52468;40.116;18.296;2023-07-13T03:46:57;25.00;69.60
51811;DHT22;52468;40.116;18.296;2023-07-13T03:49:25;25.10;69.70
51811;DHT22;52468;40.116;18.296;2023-07-13T03:51:53;25.10;69.50
51811;DHT22;52468;40.116;18.296;2023-07-13T03:54:21;25.10;69.40
51811;DHT22;52468;40.116;18.296;2023-07-13T03:56:49;25.20;69.30
51811;DHT22;52468;40.116;18.296;2023-07-13T03:59:18;25.40;69.00
51811;DHT22;52468;40.116;18.296;2023-07-13T04:01:46;25.50;69.00
51811;DHT22;52468;40.116;18.296;2023-07-13T04:04:14;25.60;68.70
51811;DHT22;52468;40.116;18.296;2023-07-13T04:06:43;25.80;68.20
51811;DHT22;52468;40.116;18.296;2023-07-13T04:09:12;25.90;67.70
51811;DHT22;52468;40.116;18.296;2023-07-13T04:11:40;26.10;67.40
51811;DHT22;52468;40.116;18.296;2023-07-13T04:14:08;26.30;66.80
51811;DHT22;52468;40.116;18.296;2023-07-13T04:16:35;26.40;66.40
51811;DHT22;52468;40.116;18.296;2023-07-13T04:19:04;26.60;65.80
51811;DHT22;52468;40.116;18.296;2023-07-13T04:21:32;26.80;65.30
51811;DHT22;52468;40.116;18.296;2023-07-13T04:24:00;27.00;64.80
51811;DHT22;52468;40.116;18.296;2023-07-13T04:26:28;27.10;64.50
51811;DHT22;52468;40.116;18.296;2023-07-13T04:28:57;27.20;64.20
51811;DHT22;52468;40.116;18.296;2023-07-13T04:31:25;27.40;63.70
51811;DHT22;52468;40.116;18.296;2023-07-13T04:33:53;27.50;63.40
51811;DHT22;52468;40.116;18.296;2023-07-13T04:36:21;27.60;63.10
51811;DHT22;52468;40.116;18.296;2023-07-13T04:38:49;27.60;62.80
51811;DHT22;52468;40.116;18.296;2023-07-13T04:41:16;27.70;62.80
51811;DHT22;52468;40.116;18.296;2023-07-13T04:43:44;27.90;62.20
51811;DHT22;52468;40.116;18.296;2023-07-13T04:46:15;28.00;62.00
51811;DHT22;52468;40.116;18.296;2023-07-13T04:48:45;28.10;61.90
51811;DHT22;52468;40.116;18.296;2023-07-13T04:51:13;28.20;61.80
51811;DHT22;52468;40.116;18.296;2023-07-13T04:53:41;28.30;61.90
51811;DHT22;52468;40.116;18.296;2023-07-13T04:56:09;28.40;61.90
51811;DHT22;52468;40.116;18.296;2023-07-13T04:58:37;28.50;61.90
51811;DHT22;52468;40.116;18.296;2023-07-13T05:01:06;28.70;61.70
51811;DHT22;52468;40.116;18.296;2023-07-13T05:03:34;29.00;61.70
51811;DHT22;52468;40.116;18.296;2023-07-13T05:06:06;29.10;61.50
51811;DHT22;52468;40.116;18.296;2023-07-13T05:08:34;29.30;61.50
51811;DHT22;52468;40.116;18.296;2023-07-13T05:11:04;29.50;61.20
51811;DHT22;52468;40.116;18.296;2023-07-13T05:13:31;29.70;60.90
51811;DHT22;52468;40.116;18.296;2023-07-13T05:16:01;29.90;60.70
51811;DHT22;52468;40.116;18.296;2023-07-13T05:18:30;30.00;60.60
51811;DHT22;52468;40.116;18.296;2023-07-13T05:21:00;30.00;60.30
51811;DHT22;52468;40.116;18.296;2023-07-13T05:23:29;30.20;60.10
51811;DHT22;52468;40.116;18.296;2023-07-13T05:25:57;30.30;59.40
51811;DHT22;52468;40.116;18.296;2023-07-13T05:28:26;30.30;59.20
51811;DHT22;52468;40.116;18.296;2023-07-13T05:30:54;30.50;58.90
51811;DHT22;52468;40.116;18.296;2023-07-13T05:33:22;30.60;58.40
51811;DHT22;52468;40.116;18.296;2023-07-13T05:35:50;30.60;58.00
51811;DHT22;52468;40.116;18.296;2023-07-13T05:38:18;30.80;57.70
51811;DHT22;52468;40.116;18.296;2023-07-13T05:40:46;30.90;57.60
51811;DHT22;52468;40.116;18.296;2023-07-13T05:43:14;31.10;57.00
51811;DHT22;52468;40.116;18.296;2023-07-13T05:45:43;31.30;56.60
51811;DHT22;52468;40.116;18.296;2023-07-13T05:48:11;31.50;55.50
51811;DHT22;52468;40.116;18.296;2023-07-13T05:50:38;31.50;55.10
51811;DHT22;52468;40.116;18.296;2023-07-13T05:53:06;31.80;54.50
51811;DHT22;52468;40.116;18.296;2023-07-13T05:55:34;32.00;54.10
51811;DHT22;52468;40.116;18.296;2023-07-13T05:58:02;32.10;53.40
51811;DHT22;52468;40.116;18.296;2023-07-13T06:00:30;32.30;52.70
51811;DHT22;52468;40.116;18.296;2023-07-13T06:02:58;32.50;52.20
51811;DHT22;52468;40.116;18.296;2023-07-13T06:05:26;32.50;51.50
51811;DHT22;52468;40.116;18.296;2023-07-13T06:07:56;32.50;51.50
51811;DHT22;52468;40.116;18.296;2023-07-13T06:10:24;32.70;51.10
51811;DHT22;52468;40.116;18.296;2023-07-13T06:12:52;32.80;50.90
51811;DHT22;52468;40.116;18.296;2023-07-13T06:15:20;33.00;50.50
51811;DHT22;52468;40.116;18.296;2023-07-13T06:17:48;33.00;50.30
51811;DHT22;52468;40.116;18.296;2023-07-13T06:20:16;33.00;50.20
51811;DHT22;52468;40.116;18.296;2023-07-13T06:22:44;33.10;49.70
51811;DHT22;52468;40.116;18.296;2023-07-13T06:25:12;33.40;48.70
51811;DHT22;52468;40.116;18.296;2023-07-13T06:27:39;33.50;48.50
51811;DHT22;52468;40.116;18.296;2023-07-13T06:30:08;33.90;47.90
51811;DHT22;52468;40.116;18.296;2023-07-13T06:32:36;34.00;46.40
51811;DHT22;52468;40.116;18.296;2023-07-13T06:35:06;34.00;46.10
51811;DHT22;52468;40.116;18.296;2023-07-13T06:37:34;34.20;45.40
51811;DHT22;52468;40.116;18.296;2023-07-13T06:40:02;34.30;44.70
51811;DHT22;52468;40.116;18.296;2023-07-13T06:42:30;34.40;44.10
51811;DHT22;52468;40.116;18.296;2023-07-13T06:44:58;34.50;44.00
51811;DHT22;52468;40.116;18.296;2023-07-13T06:47:26;34.70;44.00
51811;DHT22;52468;40.116;18.296;2023-07-13T06:49:54;35.00;43.70
51811;DHT22;52468;40.116;18.296;2023-07-13T06:52:22;35.10;43.40
51811;DHT22;52468;40.116;18.296;2023-07-13T06:54:50;35.30;43.00
51811;DHT22;52468;40.116;18.296;2023-07-13T06:57:18;35.50;41.70
51811;DHT22;52468;40.116;18.296;2023-07-13T06:59:46;35.50;41.50
51811;DHT22;52468;40.116;18.296;2023-07-13T07:02:14;35.60;41.10
51811;DHT22;52468;40.116;18.296;2023-07-13T07:04:41;35.80;41.30
51811;DHT22;52468;40.116;18.296;2023-07-13T07:07:09;36.00;40.00
51811;DHT22;52468;40.116;18.296;2023-07-13T07:09:37;36.10;39.20
51811;DHT22;52468;40.116;18.296;2023-07-13T07:12:05;36.20;38.90
51811;DHT22;52468;40.116;18.296;2023-07-13T07:14:33;36.20;38.10
51811;DHT22;52468;40.116;18.296;2023-07-13T07:17:02;36.30;37.60
51811;DHT22;52468;40.116;18.296;2023-07-13T07:19:30;36.40;36.50
51811;DHT22;52468;40.116;18.296;2023-07-13T07:21:58;36.30;36.40
51811;DHT22;52468;40.116;18.296;2023-07-13T07:24:26;36.40;36.30
51811;DHT22;52468;40.116;18.296;2023-07-13T07:26:54;36.50;36.10
51811;DHT22;52468;40.116;18.296;2023-07-13T07:29:25;36.70;34.90
51811;DHT22;52468;40.116;18.296;2023-07-13T07:31:58;36.80;34.10
51811;DHT22;52468;40.116;18.296;2023-07-13T07:34:30;37.00;33.20
51811;DHT22;52468;40.116;18.296;2023-07-13T07:37:01;37.00;33.30
51811;DHT22;52468;40.116;18.296;2023-07-13T07:39:33;37.20;33.00
51811;DHT22;52468;40.116;18.296;2023-07-13T07:42:01;37.30;32.30
51811;DHT22;52468;40.116;18.296;2023-07-13T07:44:31;37.40;31.50
51811;DHT22;52468;40.116;18.296;2023-07-13T07:46:59;37.50;29.90
51811;DHT22;52468;40.116;18.296;2023-07-13T07:49:27;37.50;29.20
51811;DHT22;52468;40.116;18.296;2023-07-13T07:51:55;37.50;29.30
51811;DHT22;52468;40.116;18.296;2023-07-13T07:54:23;37.50;29.20
51811;DHT22;52468;40.116;18.296;2023-07-13T07:56:56;37.70;29.10
51811;DHT22;52468;40.116;18.296;2023-07-13T07:59:27;37.90;29.10
51811;DHT22;52468;40.116;18.296;2023-07-13T08:01:57;38.10;28.70
51811;DHT22;52468;40.116;18.296;2023-07-13T08:04:28;38.20;27.70
51811;DHT22;52468;40.116;18.296;2023-07-13T08:06:59;38.30;27.50
51811;DHT22;52468;40.116;18.296;2023-07-13T08:09:28;38.40;27.50
51811;DHT22;52468;40.116;18.296;2023-07-13T08:11:56;38.50;26.20
51811;DHT22;52468;40.116;18.296;2023-07-13T08:14:28;38.60;26.30
51811;DHT22;52468;40.116;18.296;2023-07-13T08:17:02;38.50;26.50
51811;DHT22;52468;40.116;18.296;2023-07-13T08:19:30;38.60;25.90
51811;DHT22;52468;40.116;18.296;2023-07-13T08:21:58;38.80;26.10
51811;DHT22;52468;40.116;18.296;2023-07-13T08:24:25;38.90;25.80
51811;DHT22;52468;40.116;18.296;2023-07-13T08:26:53;39.00;24.90
51811;DHT22;52468;40.116;18.296;2023-07-13T08:29:21;38.90;24.80
51811;DHT22;52468;40.116;18.296;2023-07-13T08:31:49;39.10;25.20
51811;DHT22;52468;40.116;18.296;2023-07-13T08:34:18;39.20;25.10
51811;DHT22;52468;40.116;18.296;2023-07-13T08:36:45;39.30;25.10
51811;DHT22;52468;40.116;18.296;2023-07-13T08:39:13;39.30;25.30
51811;DHT22;52468;40.116;18.296;2023-07-13T08:41:41;39.40;25.30
51811;DHT22;52468;40.116;18.296;2023-07-13T08:44:36;39.50;24.70
51811;DHT22;52468;40.116;18.296;2023-07-13T08:47:06;39.50;24.40
51811;DHT22;52468;40.116;18.296;2023-07-13T08:49:34;39.70;24.90
51811;DHT22;52468;40.116;18.296;2023-07-13T08:52:12;39.80;24.70
51811;DHT22;52468;40.116;18.296;2023-07-13T08:54:48;39.90;24.50
51811;DHT22;52468;40.116;18.296;2023-07-13T08:57:19;39.90;24.60
51811;DHT22;52468;40.116;18.296;2023-07-13T08:59:48;40.00;25.30
51811;DHT22;52468;40.116;18.296;2023-07-13T09:05:25;39.90;25.20
51811;DHT22;52468;40.116;18.296;2023-07-13T09:08:12;39.90;24.30
51811;DHT22;52468;40.116;18.296;2023-07-13T09:10:49;39.90;24.70
51811;DHT22;52468;40.116;18.296;2023-07-13T09:16:41;40.20;23.50
51811;DHT22;52468;40.116;18.296;2023-07-13T09:19:18;40.30;23.30
51811;DHT22;52468;40.116;18.296;2023-07-13T09:21:47;40.50;22.30
51811;DHT22;52468;40.116;18.296;2023-07-13T09:24:36;40.40;22.80
51811;DHT22;52468;40.116;18.296;2023-07-13T09:27:15;40.50;23.00
51811;DHT22;52468;40.116;18.296;2023-07-13T09:29:54;40.40;22.10
51811;DHT22;52468;40.116;18.296;2023-07-13T09:32:26;40.30;22.50
51811;DHT22;52468;40.116;18.296;2023-07-13T09:34:55;40.40;23.10
51811;DHT22;52468;40.116;18.296;2023-07-13T09:37:28;40.50;23.70
51811;DHT22;52468;40.116;18.296;2023-07-13T09:39:59;40.40;22.70
51811;DHT22;52468;40.116;18.296;2023-07-13T09:42:29;40.50;23.10
51811;DHT22;52468;40.116;18.296;2023-07-13T09:44:59;40.50;22.70
51811;DHT22;52468;40.116;18.296;2023-07-13T09:47:32;40.70;22.80
51811;DHT22;52468;40.116;18.296;2023-07-13T09:50:02;40.90;22.60
51811;DHT22;52468;40.116;18.296;2023-07-13T09:52:48;40.90;22.30
51811;DHT22;52468;40.116;18.296;2023-07-13T09:55:35;41.10;22.10
51811;DHT22;52468;40.116;18.296;2023-07-13T10:01:02;41.50;21.80
51811;DHT22;52468;40.116;18.296;2023-07-13T10:03:35;41.60;21.70
51811;DHT22;52468;40.116;18.296;2023-07-13T10:06:17;41.50;21.10
51811;DHT22;52468;40.116;18.296;2023-07-13T10:08:46;41.60;21.00
51811;DHT22;52468;40.116;18.296;2023-07-13T10:11:22;41.60;21.30
51811;DHT22;52468;40.116;18.296;2023-07-13T10:13:54;41.60;19.60
51811;DHT22;52468;40.116;18.296;2023-07-13T10:16:28;41.80;19.30
51811;DHT22;52468;40.116;18.296;2023-07-13T10:19:23;41.90;20.00
51811;DHT22;52468;40.116;18.296;2023-07-13T10:24:31;42.00;20.70
51811;DHT22;52468;40.116;18.296;2023-07-13T10:27:15;42.00;21.60
51811;DHT22;52468;40.116;18.296;2023-07-13T10:32:36;42.00;20.00
51811;DHT22;52468;40.116;18.296;2023-07-13T10:35:05;42.20;19.60
51811;DHT22;52468;40.116;18.296;2023-07-13T10:38:06;42.20;19.20
51811;DHT22;52468;40.116;18.296;2023-07-13T10:40:39;42.00;20.10
51811;DHT22;52468;40.116;18.296;2023-07-13T10:43:18;42.20;20.70
51811;DHT22;52468;40.116;18.296;2023-07-13T10:45:48;42.40;20.40
51811;DHT22;52468;40.116;18.296;2023-07-13T10:48:18;42.50;19.70
51811;DHT22;52468;40.116;18.296;2023-07-13T10:50:49;42.70;20.00
51811;DHT22;52468;40.116;18.296;2023-07-13T10:58:21;42.80;20.20
51811;DHT22;52468;40.116;18.296;2023-07-13T11:03:32;42.60;19.20
51811;DHT22;52468;40.116;18.296;2023-07-13T11:06:15;42.60;19.30
51811;DHT22;52468;40.116;18.296;2023-07-13T11:13:59;42.70;19.70
51811;DHT22;52468;40.116;18.296;2023-07-13T11:16:35;42.80;18.00
51811;DHT22;52468;40.116;18.296;2023-07-13T11:21:35;43.00;18.60
51811;DHT22;52468;40.116;18.296;2023-07-13T11:24:28;43.10;18.80
51811;DHT22;52468;40.116;18.296;2023-07-13T11:26:56;43.40;19.10
51811;DHT22;52468;40.116;18.296;2023-07-13T11:29:37;43.50;17.90
51811;DHT22;52468;40.116;18.296;2023-07-13T11:32:24;43.40;18.50
51811;DHT22;52468;40.116;18.296;2023-07-13T11:34:54;43.30;18.90
51811;DHT22;52468;40.116;18.296;2023-07-13T11:37:23;43.50;19.00
51811;DHT22;52468;40.116;18.296;2023-07-13T11:39:52;43.70;18.30
51811;DHT22;52468;40.116;18.296;2023-07-13T11:42:21;43.70;18.80
51811;DHT22;52468;40.116;18.296;2023-07-13T11:44:50;43.80;18.70
51811;DHT22;52468;40.116;18.296;2023-07-13T11:47:30;43.90;18.70
51811;DHT22;52468;40.116;18.296;2023-07-13T11:49:58;43.90;17.80
51811;DHT22;52468;40.116;18.296;2023-07-13T11:52:36;44.00;18.30
51811;DHT22;52468;40.116;18.296;2023-07-13T11:55:14;44.10;18.70
51811;DHT22;52468;40.116;18.296;2023-07-13T11:57:49;44.10;17.60
51811;DHT22;52468;40.116;18.296;2023-07-13T12:00:22;44.20;16.70
51811;DHT22;52468;40.116;18.296;2023-07-13T12:02:53;44.20;16.20
51811;DHT22;52468;40.116;18.296;2023-07-13T12:05:22;44.20;16.80
51811;DHT22;52468;40.116;18.296;2023-07-13T12:07:50;44.30;15.90
51811;DHT22;52468;40.116;18.296;2023-07-13T12:10:21;44.30;15.20
51811;DHT22;52468;40.116;18.296;2023-07-13T12:12:56;44.50;15.60
51811;DHT22;52468;40.116;18.296;2023-07-13T12:18:22;44.80;16.70
51811;DHT22;52468;40.116;18.296;2023-07-13T12:20:51;44.90;17.20
51811;DHT22;52468;40.116;18.296;2023-07-13T12:23:29;45.00;17.00
51811;DHT22;52468;40.116;18.296;2023-07-13T12:26:00;45.30;17.30
51811;DHT22;52468;40.116;18.296;2023-07-13T12:28:36;45.40;16.30
51811;DHT22;52468;40.116;18.296;2023-07-13T12:31:24;45.50;15.80
51811;DHT22;52468;40.116;18.296;2023-07-13T12:34:16;45.50;16.00
51811;DHT22;52468;40.116;18.296;2023-07-13T12:37:00;45.60;16.50
51811;DHT22;52468;40.116;18.296;2023-07-13T12:39:35;45.70;16.80
51811;DHT22;52468;40.116;18.296;2023-07-13T12:42:23;46.10;16.50
51811;DHT22;52468;40.116;18.296;2023-07-13T12:45:03;46.70;15.20
51811;DHT22;52468;40.116;18.296;2023-07-13T12:47:40;47.00;15.30
51811;DHT22;52468;40.116;18.296;2023-07-13T12:50:18;47.50;15.30
51811;DHT22;52468;40.116;18.296;2023-07-13T12:52:52;48.00;14.90
51811;DHT22;52468;40.116;18.296;2023-07-13T12:55:21;48.50;14.90
51811;DHT22;52468;40.116;18.296;2023-07-13T12:57:56;49.20;13.80
51811;DHT22;52468;40.116;18.296;2023-07-13T13:00:30;50.10;13.80
51811;DHT22;52468;40.116;18.296;2023-07-13T13:05:57;51.80;13.50
51811;DHT22;52468;40.116;18.296;2023-07-13T13:08:27;52.40;13.50
51811;DHT22;52468;40.116;18.296;2023-07-13T13:10:55;53.00;13.00
51811;DHT22;52468;40.116;18.296;2023-07-13T13:13:23;53.30;12.60
51811;DHT22;52468;40.116;18.296;2023-07-13T13:15:52;53.50;12.60
51811;DHT22;52468;40.116;18.296;2023-07-13T13:18:22;53.90;12.50
51811;DHT22;52468;40.116;18.296;2023-07-13T13:20:51;54.00;12.60
51811;DHT22;52468;40.116;18.296;2023-07-13T13:23:20;53.90;12.80
51811;DHT22;52468;40.116;18.296;2023-07-13T13:25:50;54.00;13.10
51811;DHT22;52468;40.116;18.296;2023-07-13T13:28:21;54.10;13.10
51811;DHT22;52468;40.116;18.296;2023-07-13T13:30:50;54.10;13.50
51811;DHT22;52468;40.116;18.296;2023-07-13T13:33:20;54.00;13.40
51811;DHT22;52468;40.116;18.296;2023-07-13T13:35:48;54.20;13.40
51811;DHT22;52468;40.116;18.296;2023-07-13T13:38:27;54.30;13.20
51811;DHT22;52468;40.116;18.296;2023-07-13T13:40:55;54.20;13.30
51811;DHT22;52468;40.116;18.296;2023-07-13T13:43:25;54.10;13.40
51811;DHT22;52468;40.116;18.296;2023-07-13T13:45:59;53.70;13.60
51811;DHT22;52468;40.116;18.296;2023-07-13T13:48:32;53.70;13.10
51811;DHT22;52468;40.116;18.296;2023-07-13T13:51:10;53.70;12.90
51811;DHT22;52468;40.116;18.296;2023-07-13T13:53:39;53.80;13.30
51811;DHT22;52468;40.116;18.296;2023-07-13T13:56:07;53.50;13.60
51811;DHT22;52468;40.116;18.296;2023-07-13T13:58:35;53.70;13.60
51811;DHT22;52468;40.116;18.296;2023-07-13T14:01:04;53.80;13.60
51811;DHT22;52468;40.116;18.296;2023-07-13T14:03:35;53.70;13.10
51811;DHT22;52468;40.116;18.296;2023-07-13T14:06:03;53.40;13.40
51811;DHT22;52468;40.116;18.296;2023-07-13T14:08:31;53.40;13.20
51811;DHT22;52468;40.116;18.296;2023-07-13T14:10:59;53.50;13.10
51811;DHT22;52468;40.116;18.296;2023-07-13T14:13:42;53.40;13.10
51811;DHT22;52468;40.116;18.296;2023-07-13T14:16:13;53.50;13.20
51811;DHT22;52468;40.116;18.296;2023-07-13T14:18:42;53.50;13.30
51811;DHT22;52468;40.116;18.296;2023-07-13T14:21:21;53.50;13.20
51811;DHT22;52468;40.116;18.296;2023-07-13T14:23:50;53.60;13.60
51811;DHT22;52468;40.116;18.296;2023-07-13T14:26:23;53.50;13.50
51811;DHT22;52468;40.116;18.296;2023-07-13T14:28:55;53.50;13.50
51811;DHT22;52468;40.116;18.296;2023-07-13T14:31:25;53.70;13.30
51811;DHT22;52468;40.116;18.296;2023-07-13T14:33:55;53.70;13.50
51811;DHT22;52468;40.116;18.296;2023-07-13T14:36:33;53.80;13.20
51811;DHT22;52468;40.116;18.296;2023-07-13T14:39:21;53.50;13.40
51811;DHT22;52468;40.116;18.296;2023-07-13T14:41:54;53.80;13.40
51811;DHT22;52468;40.116;18.296;2023-07-13T14:44:26;54.00;13.50
51811;DHT22;52468;40.116;18.296;2023-07-13T14:47:01;54.10;13.50
51811;DHT22;52468;40.116;18.296;2023-07-13T14:52:15;53.90;13.50
51811;DHT22;52468;40.116;18.296;2023-07-13T14:54:44;53.60;13.70
51811;DHT22;52468;40.116;18.296;2023-07-13T14:57:18;53.80;13.70
51811;DHT22;52468;40.116;18.296;2023-07-13T14:59:48;53.60;13.70
51811;DHT22;52468;40.116;18.296;2023-07-13T15:04:54;52.90;14.00
51811;DHT22;52468;40.116;18.296;2023-07-13T15:07:24;52.60;14.20
51811;DHT22;52468;40.116;18.296;2023-07-13T15:09:52;52.60;14.10
51811;DHT22;52468;40.116;18.296;2023-07-13T15:12:21;52.50;14.40
51811;DHT22;52468;40.116;18.296;2023-07-13T15:14:49;52.80;14.20
51811;DHT22;52468;40.116;18.296;2023-07-13T15:17:40;52.70;14.10
51811;DHT22;52468;40.116;18.296;2023-07-13T15:20:16;52.50;13.60
51811;DHT22;52468;40.116;18.296;2023-07-13T15:22:44;52.20;13.90
51811;DHT22;52468;40.116;18.296;2023-07-13T15:25:19;52.30;14.20
51811;DHT22;52468;40.116;18.296;2023-07-13T15:27:47;52.20;14.60
51811;DHT22;52468;40.116;18.296;2023-07-13T15:30:15;52.00;14.90
51811;DHT22;52468;40.116;18.296;2023-07-13T15:32:44;52.00;15.00
51811;DHT22;52468;40.116;18.296;2023-07-13T15:35:21;52.10;14.90
51811;DHT22;52468;40.116;18.296;2023-07-13T15:37:49;52.10;14.90
51811;DHT22;52468;40.116;18.296;2023-07-13T15:40:18;51.80;15.00
51811;DHT22;52468;40.116;18.296;2023-07-13T15:42:49;51.80;15.00
51811;DHT22;52468;40.116;18.296;2023-07-13T15:45:19;51.40;15.30
51811;DHT22;52468;40.116;18.296;2023-07-13T15:47:49;51.30;15.20
51811;DHT22;52468;40.116;18.296;2023-07-13T15:50:20;51.40;15.20
51811;DHT22;52468;40.116;18.296;2023-07-13T15:52:53;51.00;15.30
51811;DHT22;52468;40.116;18.296;2023-07-13T15:55:21;50.50;15.60
51811;DHT22;52468;40.116;18.296;2023-07-13T15:57:51;50.10;15.90
51811;DHT22;52468;40.116;18.296;2023-07-13T16:02:49;49.60;16.30
51811;DHT22;52468;40.116;18.296;2023-07-13T16:05:18;49.50;16.20
51811;DHT22;52468;40.116;18.296;2023-07-13T16:07:48;49.30;16.30
51811;DHT22;52468;40.116;18.296;2023-07-13T16:10:24;48.80;16.40
51811;DHT22;52468;40.116;18.296;2023-07-13T16:12:54;48.70;16.80
51811;DHT22;52468;40.116;18.296;2023-07-13T16:15:22;48.80;16.90
51811;DHT22;52468;40.116;18.296;2023-07-13T16:17:50;49.10;17.10
51811;DHT22;52468;40.116;18.296;2023-07-13T16:20:19;49.40;17.30
51811;DHT22;52468;40.116;18.296;2023-07-13T16:22:51;49.50;17.30